Time;durP1;ratioP1;P1;durP2;ratioP2;P2;SDS_P1;SDS_P2;PMS_P1;PMS_P2;Temp;Humidity;BMP_temperature;BMP_pressure;BME280_temperature;BME280_humidity;BME280_pressure;Samples;Min_cycle;Max_cycle;Signal;HPM_P1;HPM_P2
2024/01/03 00:02:53;;;;;;;11.85;1.30;;;10.70;99.90;;;;;;7349654;32;20271;-56
2024/01/03 00:06:55;;;;;;;13.02;1.52;;;10.70;99.90;;;;;;7364342;32;20129;-56
2024/01/03 00:10:58;;;;;;;9.82;1.52;;;10.70;99.90;;;;;;7361736;32;20538;-56
2024/01/03 00:15:00;;;;;;;5.28;1.05;;;10.70;99.90;;;;;;7362088;32;20815;-57
2024/01/03 00:19:03;;;;;;;11.15;2.05;;;10.70;99.90;;;;;;7362421;32;20163;-56
2024/01/03 00:23:13;;;;;;;12.70;1.40;;;10.70;99.90;;;;;;7356173;32;20368;-55
2024/01/03 00:27:17;;;;;;;7.53;1.48;;;10.70;99.90;;;;;;7356432;32;20258;-55
2024/01/03 00:31:33;;;;;;;9.70;1.45;;;10.70;99.90;;;;;;7356737;32;20195;-58
2024/01/03 00:35:35;;;;;;;12.43;1.40;;;10.70;99.90;;;;;;7365732;32;20195;-56
2024/01/03 00:39:37;;;;;;;12.37;1.67;;;10.60;99.90;;;;;;7355959;32;20489;-55
2024/01/03 00:43:39;;;;;;;7.78;1.62;;;10.70;99.90;;;;;;7361871;32;20235;-56
2024/01/03 00:47:41;;;;;;;10.88;1.58;;;10.60;99.90;;;;;;7361116;32;20131;-55
2024/01/03 00:51:48;;;;;;;10.80;1.45;;;10.40;99.90;;;;;;7362944;32;20213;-55
2024/01/03 00:55:50;;;;;;;;;;;10.00;99.90;;;;;;7359385;32;20111;-56
2024/01/03 00:59:51;;;;;;;12.18;1.52;;;9.70;99.90;;;;;;7356081;32;20589;-55
2024/01/03 01:03:53;;;;;;;13.02;1.90;;;9.50;99.90;;;;;;7368239;32;20095;-56
2024/01/03 01:07:55;;;;;;;12.52;1.77;;;9.40;99.90;;;;;;7359454;32;20325;-56
2024/01/03 01:11:57;;;;;;;12.55;1.60;;;9.30;99.90;;;;;;7365779;32;20126;-56
2024/01/03 01:15:58;;;;;;;13.07;1.73;;;9.20;99.90;;;;;;7361533;32;20497;-55
2024/01/03 01:20:00;;;;;;;10.77;1.60;;;9.20;99.90;;;;;;7359011;32;20127;-56
2024/01/03 01:24:03;;;;;;;7.95;1.17;;;9.10;99.90;;;;;;7359437;32;20192;-56
2024/01/03 01:28:04;;;;;;;14.82;1.52;;;9.10;99.90;;;;;;7364653;32;20396;-55
2024/01/03 01:32:07;;;;;;;15.13;1.50;;;9.00;99.90;;;;;;7357576;32;20221;-56
2024/01/03 01:36:09;;;;;;;10.02;1.30;;;9.00;99.90;;;;;;7359449;32;20664;-55
2024/01/03 01:40:11;;;;;;;12.63;1.55;;;9.00;99.90;;;;;;7361695;32;20194;-56
2024/01/03 01:44:13;;;;;;;9.35;1.30;;;9.10;99.90;;;;;;7367305;32;20165;-55
2024/01/03 01:48:16;;;;;;;8.38;1.15;;;9.30;99.90;;;;;;7366251;32;20180;-55
2024/01/03 01:52:20;;;;;;;10.27;1.33;;;9.30;99.90;;;;;;7371380;32;20214;-56
2024/01/03 01:56:22;;;;;;;10.35;1.37;;;9.40;99.90;;;;;;7360462;32;20245;-56
2024/01/03 02:00:24;;;;;;;9.05;1.15;;;9.60;99.90;;;;;;7365976;32;20205;-56
2024/01/03 02:04:27;;;;;;;7.95;1.20;;;9.60;99.90;;;;;;7362655;32;20266;-56
2024/01/03 02:08:30;;;;;;;6.12;0.88;;;9.60;99.90;;;;;;7362301;32;20877;-54
2024/01/03 02:12:32;;;;;;;7.60;1.25;;;9.60;99.90;;;;;;7363670;32;20123;-55
2024/01/03 02:16:34;;;;;;;7.50;1.10;;;9.70;99.90;;;;;;7360832;32;20171;-55
2024/01/03 02:20:37;;;;;;;8.52;1.30;;;9.80;99.90;;;;;;7358327;32;20111;-57
2024/01/03 02:24:39;;;;;;;9.65;0.90;;;9.80;99.90;;;;;;7359647;32;20099;-55
2024/01/03 02:28:40;;;;;;;9.18;1.12;;;9.80;99.90;;;;;;7355514;32;20231;-56
2024/01/03 02:32:42;;;;;;;5.32;1.23;;;9.80;99.90;;;;;;7360024;32;20178;-55
2024/01/03 02:36:48;;;;;;;5.28;0.88;;;9.70;99.90;;;;;;7364565;32;20808;-55
2024/01/03 02:40:51;;;;;;;6.87;0.73;;;9.80;99.90;;;;;;7360557;32;20110;-57
2024/01/03 02:44:53;;;;;;;6.00;0.98;;;9.80;99.90;;;;;;7362455;32;20428;-55
2024/01/03 02:48:55;;;;;;;7.53;1.27;;;9.80;99.90;;;;;;7356654;32;20209;-56
2024/01/03 02:52:57;;;;;;;6.30;1.00;;;9.80;99.90;;;;;;7360326;32;20107;-55
2024/01/03 02:56:58;;;;;;;6.00;1.05;;;9.80;99.90;;;;;;7364557;32;20532;-55
2024/01/03 03:01:00;;;;;;;9.38;1.08;;;9.90;99.90;;;;;;7362584;32;20662;-56
2024/01/03 03:05:02;;;;;;;4.15;0.77;;;9.90;99.90;;;;;;7353579;32;20107;-55
2024/01/03 03:09:04;;;;;;;2.75;0.55;;;9.90;99.90;;;;;;7359822;32;20724;-56
2024/01/03 03:13:17;;;;;;;7.62;1.15;;;9.90;99.90;;;;;;7363368;32;20159;-56
2024/01/03 03:17:18;;;;;;;10.32;1.55;;;9.90;99.90;;;;;;7358340;32;20550;-56
2024/01/03 03:21:20;;;;;;;6.12;0.90;;;9.90;99.90;;;;;;7363122;32;20568;-56
2024/01/03 03:25:22;;;;;;;6.30;0.88;;;9.90;99.90;;;;;;7361795;32;20581;-57
2024/01/03 03:29:24;;;;;;;5.12;0.65;;;9.90;99.90;;;;;;7357071;32;20185;-56
2024/01/03 03:33:25;;;;;;;5.97;0.93;;;9.90;99.90;;;;;;7357870;32;20213;-56
2024/01/03 03:37:28;;;;;;;8.02;1.10;;;9.90;99.90;;;;;;7362180;32;20143;-56
2024/01/03 03:41:29;;;;;;;6.40;0.77;;;9.90;99.90;;;;;;7360991;32;20175;-57
2024/01/03 03:45:31;;;;;;;5.12;0.85;;;9.90;99.90;;;;;;7360930;32;20167;-55
2024/01/03 03:49:33;;;;;;;6.05;0.82;;;9.90;99.90;;;;;;7363532;32;20141;-55
2024/01/03 03:53:35;;;;;;;8.00;1.23;;;9.90;99.90;;;;;;7359348;32;20139;-55
2024/01/03 03:57:37;;;;;;;5.60;0.70;;;9.80;99.90;;;;;;7361525;32;20461;-56
2024/01/03 04:01:38;;;;;;;8.75;1.08;;;9.70;99.90;;;;;;7360937;32;20476;-56
2024/01/03 04:05:40;;;;;;;7.40;1.02;;;9.70;99.90;;;;;;7355705;32;20573;-55
2024/01/03 04:09:45;;;;;;;5.87;1.10;;;9.70;99.90;;;;;;7365301;32;20133;-56
2024/01/03 04:13:47;;;;;;;4.37;0.70;;;9.60;99.90;;;;;;7361509;32;20107;-56
2024/01/03 04:17:48;;;;;;;9.73;0.88;;;9.50;99.90;;;;;;7358245;32;20107;-56
2024/01/03 04:21:50;;;;;;;9.52;1.15;;;9.50;99.90;;;;;;7359286;32;20129;-56
2024/01/03 04:25:52;;;;;;;4.22;1.25;;;9.50;99.90;;;;;;7368396;32;20168;-56
2024/01/03 04:29:54;;;;;;;7.55;1.02;;;9.60;99.90;;;;;;7365570;32;20102;-56
2024/01/03 04:33:55;;;;;;;9.45;1.10;;;9.70;99.90;;;;;;7368748;32;20523;-56
2024/01/03 04:38:02;;;;;;;7.12;1.00;;;9.70;99.90;;;;;;7362256;32;20275;-55
2024/01/03 04:42:04;;;;;;;8.55;1.42;;;9.80;99.90;;;;;;7362243;32;20218;-55
2024/01/03 04:46:06;;;;;;;7.37;1.12;;;9.80;99.90;;;;;;7362330;32;20198;-56
2024/01/03 04:50:08;;;;;;;5.95;0.85;;;9.80;99.90;;;;;;7363864;32;20146;-57
2024/01/03 04:54:10;;;;;;;11.82;1.42;;;9.80;99.90;;;;;;7355990;32;20244;-58
2024/01/03 04:58:11;;;;;;;8.18;1.70;;;9.90;99.90;;;;;;7354968;32;20234;-55
2024/01/03 05:02:13;;;;;;;5.70;1.10;;;9.90;99.90;;;;;;7364018;32;20133;-55
2024/01/03 05:06:15;;;;;;;10.10;1.30;;;9.90;99.90;;;;;;7352899;32;20194;-56
2024/01/03 05:10:17;;;;;;;9.77;1.35;;;9.90;99.90;;;;;;7357852;32;20228;-57
2024/01/03 05:14:18;;;;;;;7.37;0.90;;;9.90;99.90;;;;;;7359170;32;20775;-56
2024/01/03 05:18:20;;;;;;;8.75;0.95;;;9.90;99.90;;;;;;7359778;32;20124;-56
2024/01/03 05:22:22;;;;;;;5.82;1.10;;;9.90;99.90;;;;;;7359299;32;20103;-56
2024/01/03 05:26:24;;;;;;;3.92;0.73;;;9.80;99.90;;;;;;7362905;32;20214;-56
2024/01/03 05:30:26;;;;;;;5.78;1.17;;;9.80;99.90;;;;;;7364860;32;20115;-56
2024/01/03 05:34:27;;;;;;;2.83;0.68;;;9.80;99.90;;;;;;7360189;32;20121;-56
2024/01/03 05:38:29;;;;;;;5.12;0.73;;;9.70;99.90;;;;;;7351470;32;20125;-56
2024/01/03 05:42:33;;;;;;;6.95;1.30;;;9.70;99.90;;;;;;7360292;32;20114;-56
2024/01/03 05:46:34;;;;;;;3.83;0.65;;;9.60;99.90;;;;;;7360675;32;20233;-57
2024/01/03 05:50:36;;;;;;;8.30;0.98;;;9.60;99.90;;;;;;7363667;32;20130;-57
2024/01/03 05:54:38;;;;;;;4.53;0.90;;;9.50;99.90;;;;;;7361000;32;20118;-56
2024/01/03 05:58:40;;;;;;;4.93;0.95;;;9.50;99.90;;;;;;7357612;32;20129;-57
2024/01/03 06:02:43;;;;;;;4.80;0.60;;;9.40;99.90;;;;;;7358337;32;20257;-57
2024/01/03 06:06:45;;;;;;;9.55;1.20;;;9.30;99.90;;;;;;7358441;32;20127;-54
2024/01/03 06:10:47;;;;;;;7.75;1.10;;;9.40;99.90;;;;;;7361671;32;20337;-57
2024/01/03 06:14:49;;;;;;;6.70;1.02;;;9.40;99.90;;;;;;7362607;32;20129;-56
2024/01/03 06:18:51;;;;;;;6.40;1.08;;;9.40;99.90;;;;;;7359713;32;20131;-56
2024/01/03 06:22:53;;;;;;;9.13;1.12;;;9.40;99.90;;;;;;7359387;32;20135;-56
2024/01/03 06:26:55;;;;;;;7.50;1.30;;;9.30;99.90;;;;;;7360384;32;20135;-56
2024/01/03 06:30:56;;;;;;;12.05;1.37;;;9.30;99.90;;;;;;7359763;32;20785;-56
2024/01/03 06:34:58;;;;;;;8.68;1.23;;;9.30;99.90;;;;;;7365512;32;20193;-54
2024/01/03 06:39:00;;;;;;;12.00;1.60;;;9.20;99.90;;;;;;7362473;32;20164;-56
2024/01/03 06:43:02;;;;;;;8.90;1.35;;;9.10;99.90;;;;;;7363617;32;20766;-54
2024/01/03 06:47:03;;;;;;;8.30;1.20;;;9.00;99.90;;;;;;7358076;32;20102;-55
2024/01/03 06:51:05;;;;;;;9.13;1.45;;;8.90;99.90;;;;;;7365584;32;20821;-55
2024/01/03 06:55:07;;;;;;;6.07;1.05;;;8.90;99.90;;;;;;7356060;32;20893;-55
2024/01/03 06:59:09;;;;;;;8.80;1.40;;;8.80;99.90;;;;;;7354493;32;20103;-55
2024/01/03 07:03:11;;;;;;;12.52;2.35;;;8.80;99.90;;;;;;7363089;32;20443;-56
2024/01/03 07:07:15;;;;;;;8.73;1.40;;;8.80;99.90;;;;;;7361849;32;20557;-56
2024/01/03 07:11:17;;;;;;;9.70;1.67;;;8.80;99.90;;;;;;7355048;32;20257;-55
2024/01/03 07:15:19;;;;;;;11.77;1.40;;;8.80;99.90;;;;;;7358809;32;20513;-55
2024/01/03 07:19:21;;;;;;;14.75;2.85;;;8.80;99.90;;;;;;7361103;32;20127;-55
2024/01/03 07:23:22;;;;;;;11.43;2.03;;;8.90;99.90;;;;;;7355496;32;20111;-55
2024/01/03 07:27:24;;;;;;;14.20;1.80;;;8.80;99.90;;;;;;7366410;32;20263;-56
2024/01/03 07:31:27;;;;;;;17.52;1.83;;;8.80;99.90;;;;;;7361482;32;20116;-55
2024/01/03 07:35:28;;;;;;;17.25;2.00;;;8.90;99.90;;;;;;7364180;32;20095;-56
2024/01/03 07:39:30;;;;;;;12.35;1.70;;;8.90;99.90;;;;;;7361836;32;20606;-57
2024/01/03 07:43:32;;;;;;;12.37;1.67;;;9.00;99.90;;;;;;7353386;32;20120;-57
2024/01/03 07:47:34;;;;;;;12.23;2.03;;;9.10;99.90;;;;;;7356753;32;20176;-56
2024/01/03 07:51:38;;;;;;;15.27;2.28;;;9.10;99.90;;;;;;7362860;32;20129;-56
2024/01/03 07:55:40;;;;;;;8.00;1.55;;;9.20;99.90;;;;;;7357763;32;20232;-56
2024/01/03 07:59:44;;;;;;;15.38;1.55;;;9.20;99.90;;;;;;7366253;32;20180;-57
2024/01/03 08:03:46;;;;;;;13.65;1.15;;;9.20;99.90;;;;;;7372723;32;20103;-57
2024/01/03 08:07:48;;;;;;;10.77;1.10;;;9.10;99.90;;;;;;7368567;32;20172;-56
2024/01/03 08:11:50;;;;;;;11.32;1.17;;;9.00;99.90;;;;;;7368294;32;20166;-57
2024/01/03 08:15:52;;;;;;;5.55;1.10;;;8.90;99.90;;;;;;7361361;32;20110;-55
2024/01/03 08:19:53;;;;;;;10.32;1.20;;;8.90;99.90;;;;;;7369741;32;20258;-56
2024/01/03 08:23:55;;;;;;;11.45;1.20;;;8.90;99.90;;;;;;7365189;32;20221;-57
2024/01/03 08:27:57;;;;;;;8.68;1.02;;;8.90;99.90;;;;;;7364403;32;20133;-58
2024/01/03 08:31:59;;;;;;;6.40;1.10;;;8.80;99.90;;;;;;7369814;32;20688;-57
2024/01/03 08:36:02;;;;;;;3.75;0.70;;;8.90;99.90;;;;;;7363539;32;20165;-58
2024/01/03 08:40:05;;;;;;;11.18;1.10;;;8.90;99.90;;;;;;7360270;32;20805;-56
2024/01/03 08:44:07;;;;;;;8.93;1.10;;;8.90;99.90;;;;;;7361858;32;20103;-57
2024/01/03 08:48:09;;;;;;;5.78;0.90;;;8.90;99.90;;;;;;7359704;32;20206;-56
2024/01/03 08:52:11;;;;;;;7.95;1.30;;;9.00;99.90;;;;;;7353281;32;20218;-57
2024/01/03 08:56:17;;;;;;;8.02;1.70;;;9.10;99.90;;;;;;7354074;32;20285;-57
2024/01/03 09:00:20;;;;;;;9.83;1.10;;;9.10;99.90;;;;;;7363322;32;20115;-58
2024/01/03 09:04:24;;;;;;;6.00;0.90;;;9.20;99.90;;;;;;7362739;32;20167;-57
2024/01/03 09:08:26;;;;;;;9.63;1.35;;;9.20;99.90;;;;;;7360949;32;20217;-58
2024/01/03 09:12:28;;;;;;;6.55;0.90;;;9.20;99.90;;;;;;7360853;32;20202;-57
2024/01/03 09:16:31;;;;;;;9.68;1.37;;;9.30;99.90;;;;;;7357558;32;20107;-58
2024/01/03 09:20:33;;;;;;;9.32;1.48;;;9.30;99.90;;;;;;7346253;32;20265;-56
2024/01/03 09:24:35;;;;;;;8.68;1.58;;;9.30;99.90;;;;;;7354106;32;20458;-55
2024/01/03 09:28:37;;;;;;;10.55;1.23;;;9.40;99.90;;;;;;7366444;32;20583;-57
2024/01/03 09:32:39;;;;;;;5.57;1.00;;;9.50;99.90;;;;;;7356941;32;21137;-57
2024/01/03 09:36:41;;;;;;;8.73;1.30;;;9.50;99.90;;;;;;7359928;32;20110;-57
2024/01/03 09:40:43;;;;;;;6.45;1.02;;;9.50;99.90;;;;;;7355374;32;20125;-59
2024/01/03 09:44:46;;;;;;;8.60;1.37;;;9.50;99.90;;;;;;7365844;32;20145;-57
2024/01/03 09:48:48;;;;;;;8.48;1.37;;;9.60;99.90;;;;;;7365820;32;20523;-57
2024/01/03 09:52:56;;;;;;;6.85;1.10;;;9.60;99.90;;;;;;7367425;32;20750;-57
2024/01/03 09:56:59;;;;;;;11.48;1.52;;;9.80;99.90;;;;;;7366380;32;20216;-57
2024/01/03 10:01:04;;;;;;;7.37;1.20;;;10.10;99.90;;;;;;7361865;32;20147;-58
2024/01/03 10:05:06;;;;;;;11.70;1.77;;;10.30;99.90;;;;;;7365122;32;20281;-58
2024/01/03 10:09:11;;;;;;;11.02;1.37;;;10.30;99.90;;;;;;7367552;32;20114;-56
2024/01/03 10:13:17;;;;;;;6.43;1.10;;;10.40;99.90;;;;;;7365018;32;20170;-58
2024/01/03 10:17:20;;;;;;;;;;;10.20;99.90;;;;;;7367368;32;20099;-57
2024/01/03 10:21:22;;;;;;;8.95;1.27;;;10.10;99.90;;;;;;7361858;32;20435;-57
2024/01/03 10:25:24;;;;;;;5.97;1.20;;;10.10;99.90;;;;;;7360537;32;20589;-57
2024/01/03 10:29:26;;;;;;;8.10;1.35;;;10.20;99.90;;;;;;7364205;32;20142;-57
2024/01/03 10:33:27;;;;;;;10.15;1.20;;;10.20;99.90;;;;;;7360116;32;20125;-56
2024/01/03 10:37:29;;;;;;;7.05;1.10;;;10.40;99.90;;;;;;7363231;32;20115;-57
2024/01/03 10:41:32;;;;;;;8.65;1.33;;;10.60;99.90;;;;;;7354731;32;20565;-58
2024/01/03 10:45:34;;;;;;;10.85;1.15;;;10.60;99.90;;;;;;7359875;32;20428;-57
2024/01/03 10:49:35;;;;;;;7.45;1.15;;;10.50;99.90;;;;;;7357627;32;20242;-56
2024/01/03 10:53:40;;;;;;;7.35;1.37;;;10.30;99.90;;;;;;7361500;32;20666;-56
2024/01/03 10:57:56;;;;;;;8.82;1.40;;;10.30;99.90;;;;;;7361750;32;20135;-56
2024/01/03 11:02:05;;;;;;;7.87;1.50;;;10.20;99.90;;;;;;7359955;32;20329;-55
2024/01/03 11:06:18;;;;;;;10.05;1.40;;;10.20;99.90;;;;;;7359234;32;20799;-58
2024/01/03 11:10:45;;;;;;;9.32;1.40;;;10.20;99.90;;;;;;7363119;32;20099;-57
2024/01/03 11:14:47;;;;;;;16.10;2.00;;;10.40;99.90;;;;;;7361172;32;20473;-56
2024/01/03 11:18:51;;;;;;;11.75;1.83;;;10.50;99.90;;;;;;7357052;32;20123;-57
2024/01/03 11:23:02;;;;;;;10.05;1.50;;;10.40;99.90;;;;;;7359291;32;20123;-57
2024/01/03 11:27:04;;;;;;;12.00;1.65;;;10.40;99.90;;;;;;7358820;32;20122;-56
2024/01/03 11:31:07;;;;;;;17.87;2.10;;;10.30;99.90;;;;;;7359544;32;20117;-57
2024/01/03 11:35:11;;;;;;;17.10;2.28;;;10.40;99.90;;;;;;7360835;32;20319;-58
2024/01/03 11:39:36;;;;;;;11.52;1.60;;;10.50;99.90;;;;;;7357168;32;20210;-58
2024/01/03 11:43:37;;;;;;;5.95;1.77;;;10.60;99.90;;;;;;7353519;32;20178;-56
2024/01/03 11:47:42;;;;;;;9.27;2.15;;;10.70;99.90;;;;;;7353397;32;20313;-56
2024/01/03 11:51:44;;;;;;;11.27;1.75;;;10.80;99.90;;;;;;7360452;32;20829;-58
2024/01/03 11:55:50;;;;;;;8.68;1.27;;;11.00;99.90;;;;;;7368559;32;20179;-58
2024/01/03 12:00:02;;;;;;;12.52;1.95;;;11.10;99.90;;;;;;7361452;32;20286;-57
2024/01/03 12:04:13;;;;;;;11.25;1.77;;;11.10;99.90;;;;;;7355654;32;20132;-57
2024/01/03 12:08:15;;;;;;;10.80;2.00;;;10.90;99.90;;;;;;7365003;32;20099;-57
2024/01/03 12:12:17;;;;;;;11.80;2.05;;;10.80;99.90;;;;;;7358775;32;20253;-57
2024/01/03 12:16:19;;;;;;;8.77;1.52;;;10.60;99.90;;;;;;7362327;32;20178;-58
2024/01/03 12:20:20;;;;;;;9.52;1.33;;;10.40;99.90;;;;;;7355970;32;20457;-57
2024/01/03 12:24:39;;;;;;;7.78;1.67;;;10.20;99.90;;;;;;7359190;32;20149;-58
2024/01/03 12:28:41;;;;;;;10.00;1.37;;;10.10;99.90;;;;;;7357355;32;20186;-58
2024/01/03 12:32:44;;;;;;;8.30;1.27;;;10.20;99.90;;;;;;7353969;32;20102;-58
2024/01/03 12:36:46;;;;;;;6.87;1.33;;;10.20;99.90;;;;;;7353667;32;20202;-57
2024/01/03 12:40:48;;;;;;;7.90;1.27;;;10.20;99.90;;;;;;7352432;32;20150;-56
2024/01/03 12:44:50;;;;;;;7.15;1.55;;;10.10;99.90;;;;;;7359009;32;20830;-57
2024/01/03 12:48:52;;;;;;;14.57;1.77;;;10.10;99.90;;;;;;7365078;32;20127;-58
2024/01/03 12:52:54;;;;;;;9.35;1.92;;;10.10;99.90;;;;;;7363140;32;20430;-57
2024/01/03 12:56:56;;;;;;;12.15;1.83;;;10.10;99.90;;;;;;7368413;32;20202;-58
2024/01/03 13:00:58;;;;;;;11.45;1.83;;;10.10;99.90;;;;;;7366469;32;20164;-57
2024/01/03 13:05:00;;;;;;;9.93;1.75;;;10.00;99.90;;;;;;7359436;32;20231;-57
2024/01/03 13:09:04;;;;;;;8.43;1.45;;;10.00;99.90;;;;;;7355339;32;20138;-57
2024/01/03 13:13:06;;;;;;;12.45;1.58;;;9.80;99.90;;;;;;7360350;32;20248;-56
2024/01/03 13:17:09;;;;;;;16.92;2.05;;;9.70;99.90;;;;;;7363009;32;20115;-58
2024/01/03 13:21:11;;;;;;;12.68;1.95;;;9.70;99.90;;;;;;7360561;32;20145;-56
2024/01/03 13:25:13;;;;;;;10.63;1.23;;;9.80;99.90;;;;;;7363102;32;20221;-57
2024/01/03 13:29:15;;;;;;;11.07;1.52;;;9.90;99.90;;;;;;7365515;32;20147;-63
2024/01/03 13:33:16;;;;;;;10.25;1.48;;;10.10;99.90;;;;;;7357515;32;20331;-56
2024/01/03 13:37:19;;;;;;;16.58;1.92;;;10.30;99.90;;;;;;7363747;32;20130;-56
2024/01/03 13:41:21;;;;;;;14.10;2.33;;;10.20;99.90;;;;;;7362887;32;21286;-56
2024/01/03 13:45:23;;;;;;;14.73;2.05;;;10.30;99.90;;;;;;7366463;32;20230;-57
2024/01/03 13:49:24;;;;;;;14.05;1.92;;;10.30;99.90;;;;;;7362186;32;20202;-57
2024/01/03 13:53:26;;;;;;;8.77;1.42;;;10.40;99.90;;;;;;7368246;32;20208;-57
2024/01/03 13:57:28;;;;;;;12.52;1.95;;;10.30;99.90;;;;;;7357850;32;20490;-57
2024/01/03 14:01:30;;;;;;;9.55;1.80;;;10.00;99.90;;;;;;7363399;32;20134;-58
2024/01/03 14:05:32;;;;;;;12.13;1.55;;;9.80;99.90;;;;;;7357952;32;20127;-57
2024/01/03 14:09:34;;;;;;;12.65;2.50;;;9.70;99.90;;;;;;7358907;32;20247;-56
2024/01/03 14:13:36;;;;;;;12.82;2.03;;;9.60;99.90;;;;;;7354057;32;20127;-58
2024/01/03 14:17:38;;;;;;;12.68;2.00;;;9.40;99.90;;;;;;7362477;32;20229;-58
2024/01/03 14:21:41;;;;;;;11.55;1.75;;;9.50;99.90;;;;;;7367808;32;20765;-57
2024/01/03 14:25:43;;;;;;;7.03;1.67;;;9.10;99.90;;;;;;7357670;32;20669;-57
2024/01/03 14:29:45;;;;;;;7.55;1.48;;;9.10;99.90;;;;;;7361256;32;20785;-58
2024/01/03 14:33:47;;;;;;;8.48;1.10;;;9.00;99.90;;;;;;7360218;32;20095;-58
2024/01/03 14:37:50;;;;;;;6.53;1.35;;;9.00;99.90;;;;;;7359494;32;20291;-58
2024/01/03 14:41:51;;;;;;;8.95;1.37;;;8.90;99.90;;;;;;7362270;32;20600;-58
2024/01/03 14:45:53;;;;;;;8.40;1.40;;;9.00;99.90;;;;;;7364909;32;20132;-58
2024/01/03 14:49:55;;;;;;;7.35;1.15;;;9.00;99.90;;;;;;7358189;32;20122;-58
2024/01/03 14:53:58;;;;;;;9.98;1.50;;;9.00;99.90;;;;;;7359670;32;20736;-57
2024/01/03 14:58:00;;;;;;;9.52;1.33;;;9.10;99.90;;;;;;7366396;32;20219;-58
2024/01/03 15:02:02;;;;;;;9.15;1.58;;;9.10;99.90;;;;;;7366892;32;20153;-59
2024/01/03 15:06:04;;;;;;;9.45;1.42;;;9.10;99.90;;;;;;7363383;32;20229;-58
2024/01/03 15:10:07;;;;;;;8.75;1.40;;;9.10;99.90;;;;;;7361062;32;20675;-58
2024/01/03 15:14:08;;;;;;;8.75;1.67;;;9.10;99.90;;;;;;7360263;32;20207;-58
2024/01/03 15:18:13;;;;;;;13.62;1.52;;;9.20;99.90;;;;;;7365172;32;20178;-58
2024/01/03 15:22:16;;;;;;;9.18;1.80;;;9.20;99.90;;;;;;7361449;32;20107;-57
2024/01/03 15:26:18;;;;;;;10.80;1.70;;;9.20;99.90;;;;;;7362810;32;20125;-57
2024/01/03 15:30:19;;;;;;;10.23;1.48;;;9.10;99.90;;;;;;7363929;32;20595;-59
2024/01/03 15:34:21;;;;;;;9.40;1.58;;;9.10;99.90;;;;;;7356342;32;20161;-58
2024/01/03 15:38:24;;;;;;;10.10;1.98;;;9.10;99.90;;;;;;7351674;32;20171;-58
2024/01/03 15:42:26;;;;;;;13.52;2.90;;;9.10;99.90;;;;;;7365181;32;20153;-58
2024/01/03 15:46:33;;;;;;;9.70;1.60;;;9.10;99.90;;;;;;7356556;32;20701;-57
2024/01/03 15:50:35;;;;;;;12.23;1.60;;;9.10;99.90;;;;;;7354752;32;20155;-57
2024/01/03 15:54:38;;;;;;;8.15;1.40;;;9.10;99.90;;;;;;7359873;32;20636;-56
2024/01/03 15:58:49;;;;;;;10.57;1.90;;;9.10;99.90;;;;;;7363578;32;20594;-56
2024/01/03 16:02:52;;;;;;;15.00;1.65;;;9.10;99.90;;;;;;7360602;32;20205;-57
2024/01/03 16:06:54;;;;;;;12.52;2.37;;;9.10;99.90;;;;;;7359735;32;20217;-57
2024/01/03 16:10:55;;;;;;;12.95;1.87;;;9.10;99.90;;;;;;7361801;32;20197;-57
2024/01/03 16:14:57;;;;;;;17.52;2.10;;;9.20;99.90;;;;;;7362385;32;20522;-57
2024/01/03 16:18:59;;;;;;;9.95;1.65;;;9.10;99.90;;;;;;7364220;32;20115;-57
2024/01/03 16:23:01;;;;;;;11.40;2.00;;;9.10;99.90;;;;;;7368153;32;20174;-57
2024/01/03 16:27:06;;;;;;;15.77;2.33;;;9.20;99.90;;;;;;7364144;32;20230;-57
2024/01/03 16:31:08;;;;;;;12.48;2.28;;;9.20;99.90;;;;;;7356008;32;20107;-57
2024/01/03 16:35:14;;;;;;;13.52;2.08;;;9.30;99.90;;;;;;7366687;32;20174;-56
2024/01/03 16:39:16;;;;;;;14.82;2.10;;;9.30;99.90;;;;;;7366608;32;20168;-55
2024/01/03 16:43:18;;;;;;;11.82;2.03;;;9.40;99.90;;;;;;7366993;32;20581;-56
2024/01/03 16:47:20;;;;;;;12.95;1.95;;;9.50;99.90;;;;;;7359639;32;20099;-56
2024/01/03 16:51:21;;;;;;;8.13;1.73;;;9.50;99.90;;;;;;7366889;32;20251;-58
2024/01/03 16:55:23;;;;;;;7.55;1.98;;;9.20;99.90;;;;;;7362614;32;20121;-57
2024/01/03 16:59:25;;;;;;;10.07;1.92;;;9.00;99.90;;;;;;7369619;32;20129;-56
2024/01/03 17:03:30;;;;;;;9.18;1.58;;;8.90;99.90;;;;;;7361543;32;20445;-54
2024/01/03 17:07:32;;;;;;;12.20;1.52;;;8.90;99.90;;;;;;7365275;32;20111;-56
2024/01/03 17:11:34;;;;;;;14.90;1.62;;;8.80;99.90;;;;;;7359610;32;20210;-55
2024/01/03 17:15:40;;;;;;;9.75;1.80;;;8.80;99.90;;;;;;7366704;32;20099;-56
2024/01/03 17:19:48;;;;;;;10.55;1.73;;;8.80;99.90;;;;;;7366220;32;20122;-57
2024/01/03 17:23:51;;;;;;;12.80;1.52;;;8.80;99.90;;;;;;7361006;32;20731;-59
2024/01/03 17:27:53;;;;;;;8.18;1.42;;;8.80;99.90;;;;;;7362422;32;20119;-57
2024/01/03 17:31:55;;;;;;;10.57;1.70;;;8.80;99.90;;;;;;7365564;32;20171;-57
2024/01/03 17:35:56;;;;;;;7.07;1.55;;;8.80;99.90;;;;;;7363852;32;20512;-55
2024/01/03 17:39:58;;;;;;;12.30;1.83;;;8.80;99.90;;;;;;7352724;32;20104;-56
2024/01/03 17:44:00;;;;;;;11.55;1.50;;;8.80;99.90;;;;;;7369622;32;20120;-58
2024/01/03 17:48:01;;;;;;;7.12;1.60;;;8.80;99.90;;;;;;7350639;32;20216;-57
2024/01/03 17:52:03;;;;;;;6.22;1.08;;;8.70;99.90;;;;;;7365941;32;20167;-57
2024/01/03 17:56:07;;;;;;;5.50;0.70;;;8.50;99.90;;;;;;7357404;32;20603;-57
2024/01/03 18:00:09;;;;;;;4.03;0.85;;;8.20;99.90;;;;;;7361600;32;20135;-57
2024/01/03 18:04:13;;;;;;;4.53;0.80;;;8.10;99.90;;;;;;7355633;32;20674;-57
2024/01/03 18:08:15;;;;;;;6.28;1.05;;;8.10;99.90;;;;;;7362192;32;20138;-56
2024/01/03 18:12:17;;;;;;;5.68;1.17;;;8.00;99.90;;;;;;7360446;32;20149;-56
2024/01/03 18:16:24;;;;;;;7.70;1.27;;;8.00;99.90;;;;;;7362856;32;20565;-55
2024/01/03 18:20:25;;;;;;;6.37;1.30;;;8.10;99.90;;;;;;7359499;32;20110;-55
2024/01/03 18:24:33;;;;;;;6.32;1.95;;;8.10;99.90;;;;;;7360743;32;20111;-55
2024/01/03 18:28:37;;;;;;;5.82;1.30;;;8.10;99.90;;;;;;7357122;32;20107;-55
2024/01/03 18:32:39;;;;;;;7.35;1.23;;;8.10;99.90;;;;;;7357248;32;20241;-55
2024/01/03 18:36:41;;;;;;;9.73;1.40;;;8.20;99.90;;;;;;7361552;32;20099;-55
2024/01/03 18:40:43;;;;;;;8.27;1.52;;;8.20;99.90;;;;;;7353223;32;20265;-55
2024/01/03 18:44:45;;;;;;;5.97;1.98;;;8.20;99.90;;;;;;7362855;32;20245;-56
2024/01/03 18:48:46;;;;;;;9.52;1.80;;;8.20;99.90;;;;;;7366760;32;20133;-55
2024/01/03 18:52:49;;;;;;;7.28;1.75;;;8.30;99.90;;;;;;7362859;32;20730;-56
2024/01/03 18:56:51;;;;;;;8.82;1.80;;;8.30;99.90;;;;;;7359546;32;20266;-57
2024/01/03 19:00:55;;;;;;;7.55;1.10;;;8.40;99.90;;;;;;7359506;32;20743;-55
2024/01/03 19:04:57;;;;;;;9.05;1.23;;;8.40;99.90;;;;;;7361807;32;20549;-56
2024/01/03 19:08:59;;;;;;;6.60;1.12;;;8.40;99.90;;;;;;7368533;32;20123;-55
2024/01/03 19:13:01;;;;;;;7.12;1.12;;;8.40;99.90;;;;;;7361458;32;20220;-55
2024/01/03 19:17:03;;;;;;;4.47;1.20;;;8.50;99.90;;;;;;7360928;32;20546;-56
2024/01/03 19:21:05;;;;;;;2.92;0.70;;;8.50;99.90;;;;;;7359097;32;20119;-57
2024/01/03 19:25:07;;;;;;;3.50;1.02;;;8.50;99.90;;;;;;7359245;32;20137;-55
2024/01/03 19:29:10;;;;;;;3.97;1.15;;;8.50;99.90;;;;;;7356993;32;20251;-57
2024/01/03 19:33:12;;;;;;;6.03;0.98;;;8.50;99.90;;;;;;7358281;32;20336;-56
2024/01/03 19:37:14;;;;;;;2.92;0.90;;;8.50;99.90;;;;;;7368526;32;20114;-56
2024/01/03 19:41:16;;;;;;;4.97;1.40;;;8.40;99.90;;;;;;7362913;32;20523;-56
2024/01/03 19:45:18;;;;;;;3.35;0.90;;;8.50;99.90;;;;;;7363670;32;20115;-56
2024/01/03 19:49:20;;;;;;;5.30;0.93;;;8.40;99.90;;;;;;7359514;32;20131;-56
2024/01/03 19:53:23;;;;;;;3.17;0.85;;;8.40;99.90;;;;;;7354519;32;20183;-56
2024/01/03 19:57:25;;;;;;;5.28;1.33;;;8.40;99.90;;;;;;7359987;32;20103;-57
2024/01/03 20:01:27;;;;;;;2.25;0.70;;;8.40;99.90;;;;;;7366594;32;20246;-54
2024/01/03 20:05:28;;;;;;;3.78;1.05;;;8.40;99.90;;;;;;7358020;32;20209;-55
2024/01/03 20:09:30;;;;;;;5.05;1.40;;;8.40;99.90;;;;;;7369394;32;20771;-58
2024/01/03 20:13:32;;;;;;;4.75;1.33;;;8.40;99.90;;;;;;7360577;32;20210;-57
2024/01/03 20:17:34;;;;;;;4.12;1.40;;;8.40;99.90;;;;;;7368379;32;20658;-55
2024/01/03 20:21:44;;;;;;;9.65;1.62;;;8.40;99.90;;;;;;7365902;32;20225;-55
2024/01/03 20:25:46;;;;;;;6.43;1.60;;;8.50;99.90;;;;;;7361273;32;20103;-56
2024/01/03 20:29:47;;;;;;;9.27;1.58;;;8.50;99.90;;;;;;7364425;32;20744;-56
2024/01/03 20:33:50;;;;;;;6.43;1.30;;;8.50;99.90;;;;;;7357426;32;20677;-55
2024/01/03 20:37:52;;;;;;;10.90;2.05;;;8.50;99.90;;;;;;7356453;32;20348;-56
2024/01/03 20:41:56;;;;;;;8.88;1.73;;;8.50;99.90;;;;;;7366449;32;20126;-56
2024/01/03 20:45:58;;;;;;;8.27;1.80;;;8.50;99.90;;;;;;7366316;32;20117;-57
2024/01/03 20:50:00;;;;;;;7.70;1.37;;;8.50;99.90;;;;;;7363299;32;20111;-58
2024/01/03 20:54:03;;;;;;;5.03;1.50;;;8.60;99.90;;;;;;7359554;32;20633;-57
2024/01/03 20:58:04;;;;;;;11.55;1.62;;;8.60;99.90;;;;;;7362717;32;20162;-57
2024/01/03 21:02:08;;;;;;;7.82;1.30;;;8.50;99.90;;;;;;7367614;32;20480;-56
2024/01/03 21:06:10;;;;;;;7.45;1.30;;;8.60;99.90;;;;;;7368293;32;20102;-57
2024/01/03 21:10:13;;;;;;;12.98;1.50;;;8.50;99.90;;;;;;7361295;32;20735;-56
2024/01/03 21:14:15;;;;;;;10.63;1.92;;;8.50;99.90;;;;;;7361326;32;20168;-56